Date,TemperatureHighF,TemperatureAvgF,TemperatureLowF,DewpointHighF,DewpointAvgF,DewpointLowF,HumidityHigh,HumidityAvg,HumidityLow,PressureMaxIn,PressureMinIn,WindSpeedMaxMPH,WindSpeedAvgMPH,GustSpeedMaxMPH,PrecipitationSumIn
2013-1-1,19.0,4.5,-8.0,13.0,-3.7,-17.0,78,68,59,30.30,30.06,7,1,11,0.00
2013-1-2,19.0,19.0,19.0,13.0,13.0,13.0,78,78,78,30.06,30.06,5,5,11,0.00
2013-1-4,29.0,22.2,14.0,15.0,11.8,8.0,77,64,54,30.16,30.04,4,1,0,0.00
2013-1-5,19.0,13.8,9.0,13.0,7.9,4.0,80,77,66,30.13,29.96,8,1,0,0.00
2013-1-6,21.0,16.3,11.0,13.0,7.4,2.0,79,68,54,30.26,30.04,11,2,0,0.00
2013-1-7,33.0,27.1,17.0,22.0,18.3,10.0,75,69,62,30.04,29.90,11,4,0,0.00
2013-1-8,33.0,25.1,16.0,26.0,19.2,11.0,85,78,70,30.01,29.79,17,2,0,0.00
2013-1-13,7.0,5.6,5.0,-3.0,-3.9,-5.0,67,64,62,30.25,30.13,3,0,8,0.00
2013-1-14,11.0,4.7,3.0,1.0,-3.3,-5.0,73,69,63,30.43,30.25,0,0,3,0.00
2013-1-16,20.0,15.9,12.0,-2.0,-6.5,-12.0,40,36,32,30.27,30.14,6,1,0,0.00
2013-1-17,15.0,10.6,8.0,4.0,-7.1,-12.0,62,44,35,30.41,30.27,4,0,0,0.00
2013-1-19,37.0,12.7,1.0,27.0,-1.9,-12.0,68,51,45,30.26,29.76,26,9,0,0.00
2013-1-20,5.0,0.9,-3.0,-8.0,-13.1,-18.0,55,51,45,30.44,30.24,11,0,0,0.00
2013-1-21,-3.0,-7.2,-11.0,-18.0,-22.0,-26.0,55,47,42,30.38,30.30,12,2,0,0.00
2013-1-22,3.0,-5.3,-14.0,-10.0,-18.7,-26.0,54,51,45,30.40,30.27,5,0,0,0.00
2013-1-23,14.0,6.0,-6.0,2.0,-8.5,-25.0,70,52,31,30.63,30.17,16,2,20,0.00
2013-1-24,10.0,-0.9,-9.0,-6.0,-17.6,-26.0,48,44,38,30.70,30.25,2,0,0,0.00
2013-1-25,17.0,12.2,3.0,6.0,-1.8,-9.0,61,52,44,30.33,29.96,14,2,0,0.00
2013-1-26,24.0,6.0,-2.0,8.0,-5.5,-11.0,67,58,46,30.37,30.15,3,0,0,0.00
2013-1-27,32.0,29.2,24.0,28.0,22.0,8.0,91,76,50,30.15,29.84,5,0,0,0.00
2013-1-28,34.0,31.1,29.0,33.0,29.6,27.0,96,94,91,29.93,29.69,8,1,0,0.00
2013-1-29,35.0,31.4,27.0,32.0,27.3,18.0,97,86,69,29.80,29.57,8,3,0,0.00
2013-1-30,27.0,26.3,26.0,18.0,17.3,17.0,69,68,68,29.79,29.78,4,1,0,0.00
2013-1-31,3.0,0.0,-8.0,-11.0,-14.2,-24.0,56,50,44,30.29,29.94,7,2,0,0.00
2013-2-1,1.0,-5.3,-13.0,-7.0,-18.6,-26.0,68,52,38,30.34,30.10,0,0,0,0.00
2013-2-2,10.0,4.4,-1.0,2.0,-6.0,-11.0,73,62,49,30.21,30.01,0,0,2,0.00
2013-2-3,12.0,9.0,2.0,2.0,-1.4,-7.0,74,62,51,30.12,30.01,3,0,12,0.00
2013-2-4,13.0,9.0,1.0,6.0,-3.7,-11.0,73,56,44,30.11,29.78,1,0,6,0.00
2013-2-5,27.0,20.9,8.0,21.0,11.9,0.0,82,68,44,30.11,29.67,5,0,14,0.00
2013-2-6,24.0,15.1,7.0,18.0,8.3,0.0,77,74,69,30.13,29.98,2,0,10,0.00
2013-2-7,27.0,24.6,23.0,21.0,18.7,17.0,86,79,68,30.29,30.03,8,2,16,0.00
2013-2-8,26.0,21.6,12.0,18.0,10.8,6.0,76,63,47,30.41,30.25,5,0,9,0.00
2013-2-9,31.0,28.1,24.0,27.0,22.2,17.0,87,79,74,30.25,29.97,15,2,21,0.00
2013-2-10,32.0,29.2,27.0,31.0,26.3,23.0,95,89,81,29.97,29.34,8,2,18,0.00
2013-2-11,29.0,24.5,16.0,28.0,17.5,8.0,95,74,62,30.07,29.38,10,3,23,0.00
2013-2-12,33.0,22.9,13.0,19.0,13.9,6.0,76,68,56,30.07,29.83,4,1,11,0.00
2013-2-13,38.0,28.3,21.0,29.0,20.8,14.0,89,74,54,29.83,29.62,3,0,9,0.00
2013-2-14,32.0,24.7,13.0,29.0,15.1,-5.0,91,70,26,30.21,29.63,6,1,19,0.00
2013-2-15,16.0,9.8,4.0,-1.0,-3.6,-6.0,65,54,39,30.34,30.21,3,0,14,0.00
2013-2-16,18.0,8.3,1.0,2.0,-2.3,-8.0,73,62,46,30.29,30.14,0,0,2,0.00
2013-2-17,31.0,20.1,5.0,18.0,9.4,-2.0,71,63,54,30.14,29.67,12,4,22,0.00
2013-2-18,32.0,23.4,9.0,27.0,14.4,-2.0,81,68,58,29.84,29.55,11,2,24,0.00
2013-2-19,9.0,4.6,0.0,-2.0,-9.4,-14.0,64,52,40,30.39,29.84,14,6,31,0.00
2013-2-20,14.0,2.0,-8.0,-5.0,-11.2,-17.0,63,53,40,30.50,30.40,2,0,7,0.00
2013-2-21,23.0,12.7,2.0,11.0,-0.3,-8.0,69,56,42,30.49,30.14,7,1,15,0.00
2013-2-22,27.0,23.0,20.0,18.0,15.5,11.0,80,73,63,30.14,29.90,5,2,14,0.00
2013-2-23,31.0,24.0,19.0,21.0,16.9,12.0,82,75,63,29.99,29.87,1,0,4,0.00
2013-2-24,33.0,20.7,8.0,19.0,12.0,2.0,80,69,52,30.14,29.99,1,0,2,0.00
2013-2-25,35.0,25.3,17.0,19.0,15.9,10.0,81,68,49,30.15,30.08,1,0,3,0.00
2013-2-26,35.0,24.4,13.0,24.0,16.6,7.0,85,72,59,30.10,29.93,6,1,16,0.00
2013-2-27,39.0,31.1,27.0,22.0,20.3,18.0,75,65,44,30.08,29.93,9,2,24,0.00
2013-2-28,30.0,27.9,23.0,18.0,15.2,10.0,66,58,52,30.27,30.08,6,1,17,0.00
2013-3-1,28.0,23.4,15.0,12.0,10.5,6.0,68,57,45,30.40,30.27,7,1,13,0.00
2013-3-2,30.0,18.9,5.0,9.0,3.7,-1.0,76,54,30,30.40,30.22,1,0,5,0.00
2013-3-3,33.0,25.3,19.0,8.0,3.8,-1.0,60,41,25,30.22,30.02,7,1,16,0.00
2013-3-4,26.0,24.1,23.0,19.0,11.6,2.0,82,61,34,30.08,29.99,6,1,15,0.00
2013-3-5,28.0,24.5,22.0,22.0,19.3,16.0,84,80,71,30.34,30.02,4,1,14,0.00
2013-3-6,26.0,20.8,9.0,17.0,12.4,3.0,78,70,58,30.46,30.34,2,0,10,0.00
2013-3-7,32.0,18.9,4.0,15.0,7.6,-2.0,80,63,43,30.43,30.32,5,1,12,0.00
2013-3-8,38.0,29.2,20.0,26.0,18.9,10.0,75,65,55,30.35,30.13,4,1,9,0.00
2013-3-9,36.0,35.0,33.0,34.0,31.0,24.0,92,86,64,30.13,29.74,4,1,11,0.00
2013-3-10,34.0,32.4,29.0,32.0,25.8,20.0,92,77,68,30.01,29.84,10,3,24,0.00
2013-3-11,30.0,26.8,23.0,20.0,17.6,13.0,74,68,57,29.93,29.80,5,1,16,0.00
2013-3-12,28.0,23.7,20.0,14.0,9.4,3.0,71,55,35,30.22,29.87,15,1,12,0.00
2013-3-13,30.0,20.8,11.0,12.0,8.4,4.0,78,60,38,30.41,30.22,2,0,0,0.00
2013-3-14,40.0,30.4,23.0,25.0,20.2,12.0,84,67,51,30.29,30.06,4,0,0,0.00
2013-3-15,33.0,29.9,23.0,29.0,24.4,18.0,88,80,71,30.06,29.90,10,3,0,0.00
2013-3-16,23.0,19.0,11.0,18.0,7.5,-4.0,82,62,43,30.27,29.96,12,4,0,0.00
2013-3-17,26.0,15.4,2.0,9.0,-1.0,-8.0,62,48,37,30.32,29.93,13,3,0,0.00
2013-3-18,28.0,21.7,13.0,25.0,13.0,2.0,88,69,49,29.93,29.62,19,8,0,0.00
2013-3-19,21.0,12.9,5.0,2.0,-3.2,-10.0,62,49,29,30.22,29.84,19,8,0,0.00
2013-3-20,21.0,12.2,5.0,-1.0,-6.3,-10.0,51,43,34,30.24,30.14,18,7,0,0.00
2013-3-21,26.0,14.2,0.0,4.0,-1.5,-10.0,65,50,38,30.17,30.08,5,1,0,0.00
2013-3-22,35.0,21.1,6.0,11.0,4.9,-1.0,73,52,31,30.14,30.08,2,0,0,0.00
2013-3-23,37.0,27.2,14.0,15.0,11.3,6.0,72,52,33,30.19,30.11,4,0,0,0.00
2013-3-24,32.0,28.9,27.0,23.0,17.9,14.0,80,63,52,30.15,30.03,13,4,0,0.00
2013-3-25,36.0,29.5,22.0,18.0,12.8,10.0,64,50,37,30.26,30.10,8,2,0,0.00
2013-3-26,39.0,30.9,25.0,18.0,15.7,14.0,65,54,37,30.34,30.26,6,1,0,0.00
2013-3-27,42.0,32.3,22.0,16.0,12.9,10.0,66,46,28,30.38,30.33,1,0,0,0.00
2013-3-28,45.0,33.4,18.0,21.0,15.3,12.0,78,50,27,30.38,30.31,4,0,0,0.00
2013-3-29,50.0,39.3,29.0,34.0,25.5,18.0,73,58,44,30.32,30.11,11,2,0,0.00
2013-3-30,51.0,43.0,35.0,41.0,34.8,-99.9,90,76,62,30.11,29.90,7,2,0,0.00
2013-3-31,37.0,33.1,24.0,30.0,19.2,5.0,87,60,29,30.13,29.83,18,5,25,0.00
2013-4-1,32.0,24.2,16.0,13.0,7.8,4.0,65,50,34,30.30,30.13,10,6,18,0.00
2013-4-2,34.0,26.2,17.0,13.0,9.4,5.0,75,51,30,30.39,30.29,7,2,16,0.00
2013-4-3,45.0,33.4,17.0,28.0,16.5,9.0,76,52,29,30.43,30.08,15,6,26,0.00
2013-4-4,46.0,41.5,31.0,31.0,24.2,16.0,75,51,34,30.21,30.03,11,6,21,0.00
2013-4-5,41.0,32.7,23.0,31.0,19.8,12.0,87,62,30,30.29,29.96,8,4,17,0.00
2013-4-6,49.0,40.0,35.0,40.0,31.4,25.0,87,72,50,29.96,29.57,15,6,24,0.00
2013-4-7,47.0,39.4,35.0,35.0,30.6,28.0,85,71,52,29.99,29.79,6,3,13,0.00
2013-4-8,43.0,39.7,38.0,40.0,36.8,34.0,96,89,83,30.11,29.74,6,2,12,0.00
2013-4-9,43.0,38.0,34.0,35.0,26.5,18.0,85,64,43,30.23,30.05,18,9,29,0.01
2013-4-10,39.0,35.7,32.0,26.0,19.7,16.0,76,52,41,30.24,29.98,22,8,25,0.01
2013-4-11,36.0,32.5,28.0,30.0,25.4,15.0,93,77,44,30.01,29.75,15,9,0,0.00
2013-4-12,35.0,30.3,27.0,27.0,24.8,21.0,93,80,62,29.89,29.73,14,4,0,0.00
2013-4-13,34.0,30.3,25.0,26.0,22.9,19.0,89,74,56,30.01,29.86,5,1,7,0.00
2013-4-14,35.0,30.6,24.0,33.0,24.9,18.0,93,80,63,30.01,29.56,10,2,22,0.00
2013-4-15,38.0,35.4,32.0,34.0,27.3,24.0,94,72,64,29.99,29.55,14,8,30,0.00
2013-4-16,43.0,36.8,33.0,27.0,24.9,23.0,74,62,44,30.36,29.99,10,3,19,0.00
2013-4-17,40.0,35.7,31.0,31.0,26.1,23.0,89,68,58,30.37,29.99,12,4,22,0.00
2013-4-18,33.0,31.4,30.0,31.0,29.1,27.0,96,91,85,30.00,29.57,12,6,23,0.00
2013-4-19,36.0,30.7,27.0,29.0,24.5,9.0,96,80,42,30.03,29.54,14,6,29,0.00
2013-4-20,39.0,30.2,18.0,15.0,9.2,5.0,73,44,24,30.34,30.03,2,0,7,0.00
2013-4-21,46.0,38.8,31.0,44.0,31.6,14.0,92,76,43,30.34,30.05,16,5,25,0.00
2013-4-22,41.0,36.3,31.0,36.0,28.2,20.0,95,74,43,30.27,30.17,12,5,23,0.00
2013-4-23,41.0,33.1,25.0,32.0,23.6,13.0,96,73,34,30.21,30.10,10,4,18,0.00
2013-4-24,49.0,36.2,27.0,32.0,24.5,19.0,82,65,30,30.11,29.94,16,4,27,0.00
2013-4-25,49.0,39.6,30.0,31.0,26.2,22.0,84,62,34,30.24,30.01,6,2,15,0.00
2013-4-26,70.0,56.6,46.0,39.0,32.9,26.0,65,43,20,30.18,30.00,11,3,17,0.00
2013-4-27,72.0,58.1,36.0,42.0,29.6,16.0,78,40,12,30.19,29.93,5,1,0,0.00
2013-4-28,79.0,63.9,52.0,49.0,43.2,40.0,75,49,27,29.93,29.69,14,5,0,0.00
2013-4-29,72.0,60.8,47.0,54.0,39.1,29.0,77,48,22,29.88,29.60,13,2,0,0.00
2013-4-30,69.0,63.6,56.0,57.0,41.5,19.0,75,48,17,29.98,29.44,13,5,0,0.00
2013-5-1,56.0,41.8,33.0,32.0,28.3,23.0,90,60,38,30.52,29.98,11,3,0,0.00
2013-5-2,44.0,38.8,34.0,25.0,22.9,20.0,65,53,41,30.59,30.47,21,6,19,0.00
2013-5-3,37.0,33.8,30.0,31.0,25.7,20.0,87,73,53,30.47,30.22,15,8,28,0.00
2013-5-4,44.0,37.4,32.0,38.0,33.3,29.0,90,85,80,30.24,30.18,13,7,22,0.01
2013-5-5,65.0,48.5,37.0,46.0,39.0,34.0,87,72,49,30.23,30.12,10,2,10,0.00
2013-5-6,73.0,58.3,42.0,46.0,42.3,38.0,88,60,32,30.17,30.06,3,0,11,0.00
2013-5-7,77.0,64.0,49.0,50.0,43.0,34.0,86,52,22,30.11,30.01,8,1,0,0.00
2013-5-8,75.0,63.8,57.0,55.0,48.2,40.0,85,60,29,30.07,30.01,11,1,0,0.00
2013-5-9,58.0,52.1,43.0,54.0,45.4,25.0,89,78,48,30.17,30.02,18,8,0,0.00
2013-5-10,65.0,49.6,34.0,28.0,20.4,-99.9,68,38,11,30.19,29.92,13,3,0,0.00
2013-5-11,58.0,45.4,39.0,34.0,21.0,-99.9,59,40,26,30.22,29.91,24,8,0,0.00
2013-5-12,56.0,44.4,31.0,26.0,14.3,2.0,59,34,11,30.27,30.13,13,3,20,0.00
2013-5-13,70.0,52.9,32.0,44.0,31.2,20.0,80,47,25,30.16,29.69,17,4,29,0.00
2013-5-14,94.0,68.4,48.0,49.0,42.0,11.0,87,46,6,29.74,29.52,12,4,29,0.00
2013-5-15,80.0,66.3,53.0,45.0,40.5,27.0,65,42,15,29.98,29.72,14,2,26,0.00
2013-5-16,79.0,59.6,52.0,45.0,17.5,-99.9,75,40,17,29.98,29.87,12,3,24,0.00
2013-5-17,67.0,57.8,54.0,54.0,43.2,-99.9,91,71,15,30.06,29.96,10,3,18,0.00
2013-5-18,79.0,64.5,54.0,64.0,58.0,52.0,100,82,55,30.04,29.86,11,2,19,0.01
2013-5-19,80.0,68.4,62.0,65.0,62.9,61.0,99,84,58,29.86,29.63,11,2,23,0.01
2013-5-20,70.0,65.2,59.0,63.0,59.7,56.0,100,84,63,29.64,29.57,10,3,27,0.00
2013-5-21,60.0,50.8,45.0,59.0,50.3,44.0,100,98,96,29.79,29.59,10,5,18,0.00
2013-5-22,52.0,47.5,43.0,48.0,44.9,42.0,98,91,73,30.05,29.77,13,7,28,0.00
2013-5-23,62.0,51.7,43.0,42.0,32.2,24.0,87,51,23,30.38,30.05,13,5,24,0.00
2013-5-24,66.0,54.0,36.0,52.0,35.1,27.0,89,52,31,30.44,30.25,7,1,17,0.00
2013-5-25,62.0,57.2,53.0,52.0,46.8,42.0,91,70,49,30.31,30.27,9,3,24,0.00
2013-5-26,59.0,56.3,52.0,46.0,40.5,33.0,69,56,39,30.28,30.10,7,2,26,0.00
2013-5-27,60.0,57.5,55.0,53.0,48.5,44.0,91,72,59,30.10,29.91,6,2,19,0.00
2013-5-28,60.0,56.0,53.0,56.0,52.8,50.0,95,89,83,29.91,29.77,6,1,13,0.00
2013-5-29,75.0,65.6,56.0,68.0,60.3,54.0,95,83,59,29.88,29.70,6,1,15,0.00
2013-5-30,75.0,68.4,64.0,66.0,62.7,60.0,98,83,59,29.73,29.58,14,5,26,0.00
2013-5-31,75.0,67.8,62.0,63.0,55.2,49.0,97,67,44,29.61,29.55,16,5,33,0.00
2013-6-1,69.0,59.7,51.0,59.0,52.0,43.0,89,76,58,29.99,29.60,11,2,22,0.00
2013-6-2,65.0,55.9,47.0,44.0,39.7,37.0,78,57,35,30.13,29.99,13,2,17,0.00
2013-6-3,66.0,59.1,46.0,47.0,42.8,38.0,88,58,35,30.12,30.00,2,0,9,0.00
2013-6-4,63.0,58.2,53.0,54.0,47.2,39.0,93,68,48,30.14,30.04,7,2,18,0.00
2013-6-5,57.0,54.9,51.0,56.0,53.8,50.0,100,96,90,30.11,30.00,6,2,17,0.00
2013-6-6,55.0,51.5,48.0,52.0,49.9,47.0,100,94,87,30.10,30.03,6,2,14,0.00
2013-6-7,63.0,56.1,50.0,53.0,50.6,48.0,93,82,63,30.11,29.97,3,0,0,0.00
2013-6-8,70.0,62.6,54.0,56.0,52.3,50.0,94,71,51,29.98,29.94,7,1,0,0.00
2013-6-9,64.0,59.0,56.0,61.0,56.1,52.0,100,90,69,29.96,29.84,11,2,0,0.00
2013-6-10,73.0,63.9,58.0,64.0,60.2,58.0,100,89,64,29.91,29.86,1,0,0,0.00
2013-6-11,76.0,66.3,55.0,68.0,62.4,55.0,100,88,70,29.94,29.86,1,0,0,0.00
2013-6-12,74.0,65.0,59.0,64.0,57.9,51.0,97,79,54,29.98,29.85,5,1,0,0.00
2013-6-13,76.0,67.3,57.0,54.0,51.8,48.0,77,59,44,30.15,29.98,5,0,0,0.00
2013-6-14,77.0,68.1,55.0,59.0,55.2,49.0,86,64,53,30.14,29.93,12,2,0,0.00
2013-6-15,76.0,69.8,64.0,68.0,64.2,59.0,97,82,65,29.96,29.90,3,0,0,0.00
2013-6-16,85.0,70.5,57.0,61.0,51.2,39.0,93,57,20,29.97,29.89,9,1,0,0.00
2013-6-17,77.0,69.0,59.0,58.0,54.6,48.0,85,62,40,30.09,29.91,9,1,0,0.00
2013-6-18,73.0,61.7,49.0,56.0,49.8,42.0,82,66,49,30.15,30.08,6,1,0,0.00
2013-6-19,83.0,71.1,57.0,60.0,56.1,52.0,85,62,37,30.11,30.00,8,1,0,0.00
2013-6-20,86.0,75.1,70.0,65.0,61.8,58.0,73,64,44,30.05,29.96,12,1,0,0.00
2013-6-22,79.0,74.2,67.0,69.0,67.6,66.0,97,81,68,30.03,29.91,1,0,5,0.00
2013-6-23,81.0,73.7,66.0,70.0,66.6,62.0,100,80,55,29.93,29.74,7,2,20,0.00
2013-6-24,82.0,73.2,63.0,70.0,65.2,61.0,97,78,54,29.96,29.85,6,0,14,0.00
2013-6-25,84.0,74.9,64.0,72.0,66.7,63.0,96,77,58,29.89,29.77,4,1,14,0.00
2013-6-26,86.0,78.7,73.0,75.0,70.1,63.0,100,78,50,29.86,29.71,7,1,19,0.00
2013-6-27,84.0,76.6,68.0,66.0,59.2,50.0,88,59,31,29.87,29.84,13,2,26,0.00
2013-6-28,76.0,70.2,65.0,64.0,58.4,54.0,95,67,52,29.87,29.82,15,4,33,0.00
2013-6-29,75.0,67.5,61.0,63.0,57.3,48.0,100,73,43,30.04,29.82,11,3,21,0.00
2013-6-30,80.0,68.1,55.0,56.0,51.8,47.0,91,60,31,30.17,30.04,9,1,18,0.00
2013-7-1,82.0,71.2,58.0,61.0,55.1,49.0,93,61,34,30.25,30.17,9,1,0,0.00
2013-7-2,80.0,70.0,57.0,56.0,51.3,44.0,86,56,31,30.22,30.11,6,1,0,0.00
2013-7-3,82.0,71.5,56.0,59.0,52.1,45.0,92,56,31,30.14,30.01,1,0,9,0.00
2013-7-4,86.0,75.7,64.0,61.0,55.3,45.0,75,52,30,30.03,29.91,12,2,21,0.00
2013-7-5,86.0,79.1,71.0,63.0,58.9,54.0,62,51,41,29.94,29.84,15,7,28,0.00
2013-7-6,86.0,77.8,74.0,67.0,62.0,60.0,63,58,47,29.93,29.85,8,3,15,0.00
2013-7-7,89.0,79.7,69.0,70.0,66.9,63.0,96,66,49,29.95,29.87,9,1,18,0.00
2013-7-8,81.0,68.3,59.0,70.0,64.2,-99.9,100,90,64,30.07,29.94,3,0,7,0.00
2013-7-9,84.0,75.3,67.0,73.0,68.7,63.0,100,81,56,30.02,29.80,10,2,19,0.00
2013-7-10,78.0,69.2,60.0,63.0,53.3,-99.9,87,61,39,30.11,29.97,7,2,18,0.00
2013-7-11,82.0,72.2,58.0,64.0,56.9,53.0,95,63,37,30.16,30.02,8,1,15,0.00
2013-7-12,86.0,77.6,70.0,61.0,57.8,54.0,63,51,40,30.06,29.94,19,8,30,0.00
2013-7-13,78.0,73.3,66.0,71.0,65.5,56.0,100,78,51,30.11,29.97,14,5,22,0.00
2013-7-14,83.0,75.3,71.0,68.0,63.8,59.0,83,68,49,30.23,30.10,6,2,16,0.00
2013-7-15,86.0,76.9,66.0,70.0,66.0,62.0,98,72,47,30.29,30.21,8,1,15,0.00
2013-7-16,90.0,81.9,75.0,73.0,70.1,67.0,87,69,47,30.25,30.22,8,2,15,0.00
2013-7-17,90.0,86.9,81.0,71.0,68.3,65.0,71,55,44,30.29,30.15,8,2,15,0.00
2013-7-18,91.0,84.1,76.0,72.0,69.7,67.0,80,63,45,30.15,29.80,14,4,24,0.00
2013-7-19,83.0,78.3,73.0,71.0,62.7,56.0,85,60,42,29.95,29.77,8,3,21,0.00
2013-7-20,75.0,68.9,64.0,64.0,57.3,-99.9,94,70,48,30.02,29.92,7,1,17,0.00
2013-7-21,78.0,67.9,58.0,67.0,59.1,50.0,83,74,65,30.02,29.86,3,0,11,0.00
2013-7-22,84.0,73.7,67.0,71.0,63.5,54.0,91,73,40,29.90,29.73,12,3,21,0.00
2013-7-23,73.0,65.8,58.0,55.0,52.0,49.0,87,63,44,30.08,29.90,8,2,18,0.00
2013-7-24,77.0,66.6,58.0,58.0,54.2,51.0,87,66,47,30.13,30.01,1,0,10,0.00
2013-7-25,78.0,71.0,63.0,64.0,60.7,57.0,89,71,55,30.02,29.96,7,1,15,0.00
2013-7-26,71.0,62.8,56.0,63.0,54.3,46.0,89,74,58,30.14,29.95,19,4,0,0.00
2013-7-27,60.0,55.1,50.0,52.0,47.5,44.0,87,76,62,30.14,29.99,16,2,0,0.00
2013-7-28,70.0,59.2,51.0,54.0,48.7,45.0,85,69,47,30.11,30.01,9,1,0,0.00
2013-7-29,75.0,64.4,51.0,61.0,52.9,49.0,96,70,44,30.18,30.11,8,1,0,0.00
2013-7-30,70.0,64.9,60.0,65.0,62.5,59.0,100,92,83,30.16,30.10,2,0,0,0.00
2013-7-31,78.0,68.3,61.0,66.0,58.1,48.0,100,75,37,30.12,30.04,13,2,0,0.00
2013-8-1,79.0,68.3,56.0,60.0,52.8,50.0,88,61,38,30.08,29.92,8,1,0,0.00
2013-8-2,74.0,66.7,57.0,60.0,52.8,47.0,88,64,39,30.10,29.91,12,1,0,0.00
2013-8-3,74.0,64.5,52.0,55.0,50.2,47.0,94,64,39,30.24,30.09,7,1,0,0.00
2013-8-4,74.0,63.7,52.0,55.0,51.1,49.0,91,66,43,30.28,30.08,8,1,0,0.00
2013-8-5,80.0,68.7,60.0,66.0,61.7,53.0,100,80,54,30.08,29.84,14,1,0,0.00
2013-8-6,81.0,67.0,57.0,66.0,60.3,56.0,97,81,58,29.91,29.74,13,2,0,0.00
2013-8-7,73.0,65.0,59.0,61.0,54.1,46.0,100,72,38,30.08,29.84,3,0,14,0.00
2013-8-8,74.0,65.1,56.0,61.0,56.4,52.0,96,75,51,30.10,30.03,1,0,9,0.00
2013-8-9,73.0,65.5,57.0,61.0,54.5,47.0,100,71,42,30.18,30.04,4,1,18,0.00
2013-8-10,73.0,64.7,55.0,57.0,52.7,49.0,91,67,43,30.24,30.14,1,0,3,0.00
2013-8-11,79.0,68.7,61.0,63.0,59.0,56.0,87,73,49,30.15,30.05,1,0,7,0.00
2013-8-12,77.0,68.4,58.0,63.0,55.7,49.0,97,68,39,30.12,30.06,6,1,17,0.00
2013-8-13,73.0,63.1,53.0,56.0,48.0,-99.9,98,64,32,30.25,30.12,4,0,13,0.00
2013-8-21,85.0,78.1,71.0,75.0,70.6,60.0,94,79,51,30.06,29.88,4,0,0,0.00
2013-8-22,82.0,72.8,64.0,61.0,50.9,44.0,79,49,27,30.19,30.05,9,1,1,0.00
2013-8-23,84.0,71.1,55.0,66.0,56.4,50.0,85,62,41,30.20,30.08,9,1,14,0.00
2013-8-24,88.0,78.2,71.0,72.0,66.0,-99.9,81,68,52,30.11,29.97,18,7,33,0.00
2013-8-25,92.0,84.9,79.0,74.0,71.5,69.0,75,65,51,30.05,29.97,11,4,21,0.00
2013-8-26,92.0,84.6,77.0,75.0,73.9,72.0,90,72,54,30.03,29.88,10,2,16,0.00
2013-8-27,86.0,81.0,76.0,77.0,74.9,73.0,92,82,71,29.89,29.84,4,0,13,0.00
2013-9-24,74.0,62.7,50.0,55.0,51.0,47.0,92,67,42,30.02,29.96,2,0,14,0.00
2013-9-25,72.0,61.1,49.0,55.0,50.8,47.0,96,72,49,30.02,29.92,4,0,13,0.00
2013-9-26,80.0,67.0,57.0,60.0,54.8,50.0,83,66,46,29.98,29.88,10,2,28,0.00
2013-9-27,82.0,73.0,66.0,62.0,59.4,58.0,77,64,45,29.96,29.84,14,4,26,0.00
2013-9-28,75.0,61.2,48.0,63.0,51.7,-99.9,95,74,55,29.98,29.68,11,4,23,0.00
2013-9-29,74.0,60.1,45.0,48.0,44.3,42.0,91,61,32,30.00,29.82,10,3,24,0.00
2013-9-30,78.0,67.8,60.0,52.0,47.6,43.0,59,49,38,29.82,29.64,11,7,22,0.00
2013-10-2,73.0,56.8,42.0,52.0,42.6,33.0,94,66,24,30.09,29.91,7,2,20,0.00
2013-10-3,56.0,54.8,54.0,56.0,54.2,52.0,100,98,94,29.99,29.90,10,2,19,0.00
2013-10-4,58.0,55.5,53.0,56.0,53.5,52.0,99,93,84,30.05,29.91,11,7,24,0.00
2013-10-5,58.0,53.8,45.0,58.0,52.7,43.0,100,96,83,29.93,29.77,7,2,18,0.00
2013-10-6,51.0,47.1,44.0,51.0,46.6,43.0,100,98,94,29.89,29.73,9,2,16,0.00
2013-10-7,65.0,51.5,42.0,50.0,43.3,37.0,100,79,36,30.02,29.86,4,0,12,0.00
2013-10-8,75.0,62.7,49.0,46.0,43.8,42.0,83,54,32,30.01,29.85,16,7,28,0.00
2013-10-9,74.0,65.5,59.0,50.0,47.3,44.0,64,52,41,30.08,29.95,10,5,22,0.00
2013-10-10,76.0,63.1,52.0,52.0,47.3,44.0,75,58,38,30.08,29.93,12,3,22,0.00
2013-10-18,51.0,43.3,36.0,42.0,34.2,28.0,97,74,42,30.01,29.89,9,2,0,0.00
2013-10-19,46.0,39.0,34.0,39.0,33.3,-99.9,92,82,61,29.89,29.73,10,2,0,0.00
2013-10-20,40.0,35.0,31.0,38.0,33.0,29.0,95,92,87,29.91,29.67,11,3,0,0.00
2013-10-21,38.0,33.9,29.0,34.0,22.6,19.0,89,63,49,29.99,29.91,15,5,0,0.00
2013-10-22,40.0,32.5,25.0,31.0,26.8,21.0,89,80,63,30.07,29.99,7,2,0,0.00
2013-10-23,36.0,33.8,32.0,31.0,24.2,17.0,88,69,49,30.14,30.03,15,4,0,0.00
2013-10-24,41.0,36.4,32.0,30.0,24.7,19.0,78,63,50,30.34,30.14,11,3,0,0.00
2013-10-25,57.0,48.1,29.0,41.0,34.6,25.0,85,60,49,30.29,29.82,12,6,25,0.00
2013-10-26,50.0,41.1,35.0,40.0,26.5,-99.9,72,57,47,30.14,29.83,13,6,26,0.00
2013-10-27,55.0,42.4,32.0,32.0,28.1,25.0,80,59,39,30.18,29.86,15,4,26,0.00
2013-10-28,41.0,34.7,29.0,28.0,19.7,-99.9,76,58,34,30.49,30.18,11,6,21,0.00
2013-10-29,37.0,34.1,29.0,33.0,26.8,22.0,89,75,66,30.46,30.14,9,4,16,0.00
2013-10-30,47.0,42.2,36.0,47.0,41.5,33.0,100,97,89,30.14,29.72,5,1,8,0.00
2013-11-20,45.0,42.1,37.0,33.0,27.3,22.0,86,57,43,30.08,29.91,18,9,26,0.00
2013-11-21,37.0,30.4,23.0,35.0,24.9,12.0,93,80,62,30.55,30.08,12,6,22,0.00
2013-11-22,33.0,21.7,12.0,13.0,6.4,-1.0,72,54,24,30.66,30.47,16,7,27,0.00
2013-11-23,17.0,10.0,5.0,1.0,-4.1,-99.9,71,55,32,30.86,30.66,12,5,17,0.00
2013-11-24,31.0,19.8,7.0,13.0,5.7,-2.0,73,55,42,30.73,29.99,18,9,27,0.00
2013-11-25,38.0,32.8,28.0,27.0,20.6,13.0,78,61,49,30.11,29.91,15,8,27,0.00
2013-11-26,29.0,21.9,16.0,16.0,6.7,-3.0,63,51,42,30.29,30.11,13,9,28,0.00